createdAt,value
2023-03-07T00:01:57.483Z,6.10
2023-03-07T00:04:24.213Z,3.75
2023-03-07T00:07:02.328Z,3.97
2023-03-07T00:09:31.465Z,3.42
2023-03-07T00:11:59.604Z,4.78
2023-03-07T00:14:26.397Z,3.43
2023-03-07T00:16:53.170Z,3.88
2023-03-07T00:19:21.038Z,4.32
2023-03-07T00:21:48.973Z,3.78
2023-03-07T00:24:15.708Z,3.95
2023-03-07T00:26:42.467Z,3.92
2023-03-07T00:29:10.882Z,3.58
2023-03-07T00:31:37.955Z,4.28
2023-03-07T00:34:05.909Z,5.10
2023-03-07T00:36:32.759Z,3.95
2023-03-07T00:38:59.497Z,4.93
2023-03-07T00:41:28.154Z,4.75
2023-03-07T00:43:55.990Z,4.45
2023-03-07T00:46:25.996Z,5.55
2023-03-07T00:48:52.875Z,4.95
2023-03-07T00:51:20.946Z,4.47
2023-03-07T00:53:48.145Z,3.40
2023-03-07T00:56:16.590Z,3.85
2023-03-07T00:58:43.539Z,3.22
2023-03-07T01:01:12.171Z,4.22
2023-03-07T01:03:40.683Z,3.42
2023-03-07T01:06:09.482Z,5.60
2023-03-07T01:08:36.606Z,5.05
2023-03-07T01:11:06.202Z,4.60
2023-03-07T01:13:34.458Z,4.07
2023-03-07T01:16:08.170Z,4.40
2023-03-07T01:18:34.939Z,4.82
2023-03-07T01:21:10.053Z,5.40
2023-03-07T01:23:36.855Z,4.15
2023-03-07T01:26:03.713Z,3.05
2023-03-07T01:28:30.467Z,3.42
2023-03-07T01:30:57.678Z,3.70
2023-03-07T01:33:24.699Z,3.10
2023-03-07T01:35:51.672Z,4.78
2023-03-07T01:38:20.093Z,3.80
2023-03-07T01:40:46.946Z,3.88
2023-03-07T01:43:26.664Z,4.72
2023-03-07T01:46:27.515Z,4.70
2023-03-07T01:48:57.948Z,4.13
2023-03-07T01:51:27.465Z,4.45
2023-03-07T01:53:57.149Z,5.00
2023-03-07T01:56:24.052Z,4.82
2023-03-07T01:58:51.659Z,4.68
2023-03-07T02:01:18.685Z,4.05
2023-03-07T02:03:50.502Z,4.35
2023-03-07T02:06:18.420Z,5.05
2023-03-07T02:08:48.128Z,3.33
2023-03-07T02:11:16.722Z,4.05
2023-03-07T02:13:43.568Z,4.55
2023-03-07T02:16:10.539Z,4.18
2023-03-07T02:18:42.425Z,3.95
2023-03-07T02:21:15.576Z,3.80
2023-03-07T02:23:47.426Z,5.63
2023-03-07T02:26:20.811Z,4.65
2023-03-07T02:28:49.131Z,4.43
2023-03-07T02:31:15.951Z,5.22
2023-03-07T02:33:42.752Z,3.80
2023-03-07T02:36:13.036Z,3.35
2023-03-07T02:38:43.506Z,5.85
2023-03-07T02:41:12.827Z,6.45
2023-03-07T02:43:39.605Z,5.60
2023-03-07T02:46:07.755Z,7.05
2023-03-07T02:48:34.604Z,9.13
2023-03-07T02:51:01.332Z,9.23
2023-03-07T02:53:28.125Z,9.98
2023-03-07T02:55:54.913Z,10.48
2023-03-07T02:58:21.964Z,10.23
2023-03-07T03:00:48.751Z,10.65
2023-03-07T03:03:17.007Z,8.52
2023-03-07T03:05:43.727Z,11.93
2023-03-07T03:08:10.501Z,10.80
2023-03-07T03:10:37.225Z,11.50
2023-03-07T03:13:04.069Z,7.30
2023-03-07T03:15:30.842Z,8.88
2023-03-07T03:17:57.579Z,10.07
2023-03-07T03:20:25.711Z,13.02
2023-03-07T03:22:53.024Z,12.60
2023-03-07T03:25:20.140Z,11.23
2023-03-07T03:27:47.133Z,12.35
2023-03-07T03:30:14.103Z,11.63
2023-03-07T03:32:41.232Z,9.80
2023-03-07T03:35:08.787Z,7.85
2023-03-07T03:37:36.856Z,8.68
2023-03-07T03:40:04.139Z,8.83
2023-03-07T03:42:30.886Z,10.48
2023-03-07T03:44:57.615Z,9.00
2023-03-07T03:47:24.414Z,10.38
2023-03-07T03:49:51.125Z,10.57
2023-03-07T03:52:17.873Z,6.90
2023-03-07T03:54:45.940Z,6.55
2023-03-07T03:57:13.449Z,5.60
2023-03-07T03:59:40.218Z,5.85
2023-03-07T04:02:07.061Z,5.40
2023-03-07T04:04:33.855Z,4.50
2023-03-07T04:07:00.602Z,5.30
2023-03-07T04:09:27.326Z,5.07
2023-03-07T04:11:55.620Z,3.95
2023-03-07T04:14:22.565Z,5.35
2023-03-07T04:16:49.774Z,5.53
2023-03-07T04:19:16.638Z,4.22
2023-03-07T04:21:43.450Z,2.80
2023-03-07T04:24:10.622Z,3.90
2023-03-07T04:26:37.350Z,3.67
2023-03-07T04:29:05.446Z,4.40
2023-03-07T04:31:32.214Z,5.13
2023-03-07T04:33:59.065Z,4.55
2023-03-07T04:36:25.958Z,4.05
2023-03-07T04:38:53.061Z,3.75
2023-03-07T04:41:21.065Z,4.68
2023-03-07T04:43:48.066Z,4.90
2023-03-07T04:46:17.596Z,4.75
2023-03-07T04:48:44.923Z,5.28
2023-03-07T04:51:11.709Z,6.43
2023-03-07T04:53:38.536Z,5.38
2023-03-07T04:56:07.107Z,6.32
2023-03-07T04:58:34.107Z,6.15
2023-03-07T05:01:01.193Z,4.70
2023-03-07T05:03:29.673Z,7.00
2023-03-07T05:06:00.729Z,7.65
2023-03-07T05:08:27.483Z,4.63
2023-03-07T05:10:54.220Z,7.20
2023-03-07T05:13:20.993Z,6.80
2023-03-07T05:15:51.523Z,7.68
2023-03-07T05:18:18.345Z,7.55
2023-03-07T05:20:46.792Z,7.40
2023-03-07T05:23:13.711Z,7.30
2023-03-07T05:25:43.528Z,6.80
2023-03-07T05:28:10.673Z,8.43
2023-03-07T05:30:37.431Z,6.55
2023-03-07T05:33:04.426Z,8.93
2023-03-07T05:35:31.242Z,7.13
2023-03-07T05:37:59.325Z,7.88
2023-03-07T05:40:26.099Z,6.97
2023-03-07T05:42:52.836Z,11.30
2023-03-07T05:45:19.809Z,7.55
2023-03-07T05:47:46.790Z,10.38
2023-03-07T05:50:14.570Z,7.47
2023-03-07T05:52:41.356Z,9.43
2023-03-07T05:55:10.216Z,11.05
2023-03-07T05:57:36.922Z,9.30
2023-03-07T06:00:05.039Z,10.73
2023-03-07T06:02:32.029Z,9.53
2023-03-07T06:04:58.850Z,8.30
2023-03-07T06:07:25.597Z,8.52
2023-03-07T06:09:52.297Z,7.85
2023-03-07T06:12:20.382Z,7.40
2023-03-07T06:14:47.071Z,6.40
2023-03-07T06:17:13.857Z,5.47
2023-03-07T06:19:40.621Z,4.47
2023-03-07T06:22:07.337Z,5.10
2023-03-07T06:24:34.068Z,4.28
2023-03-07T06:27:01.231Z,3.97
2023-03-07T06:29:29.345Z,4.05
2023-03-07T06:31:56.141Z,4.30
2023-03-07T06:34:22.898Z,3.22
2023-03-07T06:36:49.651Z,3.13
2023-03-07T06:39:16.514Z,3.25
2023-03-07T06:41:44.267Z,3.78
2023-03-07T06:44:10.984Z,3.25
2023-03-07T06:46:39.090Z,2.60
2023-03-07T06:49:05.846Z,1.90
2023-03-07T06:51:32.863Z,1.98
2023-03-07T06:53:59.627Z,1.10
2023-03-07T06:56:26.473Z,1.30
2023-03-07T06:58:53.231Z,1.40
2023-03-07T07:01:21.711Z,1.10
2023-03-07T07:03:49.837Z,1.15
2023-03-07T07:06:16.711Z,1.00
2023-03-07T07:08:43.478Z,1.00
2023-03-07T07:11:10.282Z,1.30
2023-03-07T07:13:37.027Z,1.13
2023-03-07T07:16:04.887Z,1.00
2023-03-07T07:18:31.919Z,1.02
2023-03-07T07:21:00.120Z,1.00
2023-03-07T07:23:26.907Z,0.88
2023-03-07T07:25:53.718Z,1.20
2023-03-07T07:28:20.462Z,1.10
2023-03-07T07:30:47.207Z,1.35
2023-03-07T07:33:14.164Z,1.90
2023-03-07T07:35:42.501Z,1.58
2023-03-07T07:38:10.672Z,1.67
2023-03-07T07:40:37.410Z,1.60
2023-03-07T07:43:04.126Z,1.38
2023-03-07T07:45:30.838Z,1.17
2023-03-07T07:47:57.809Z,1.55
2023-03-07T07:50:24.674Z,2.00
2023-03-07T07:52:53.397Z,2.00
2023-03-07T07:55:21.889Z,1.90
2023-03-07T07:57:48.682Z,1.70
2023-03-07T08:00:16.662Z,1.88
2023-03-07T08:02:43.778Z,1.90
2023-03-07T08:05:10.577Z,2.10
2023-03-07T08:07:37.318Z,2.53
2023-03-07T08:10:04.627Z,2.67
2023-03-07T08:12:32.724Z,2.85
2023-03-07T08:14:59.529Z,2.67
2023-03-07T08:17:26.341Z,3.25
2023-03-07T08:19:53.078Z,2.90
2023-03-07T08:22:19.852Z,2.90
2023-03-07T08:24:46.639Z,3.00
2023-03-07T08:27:13.425Z,2.80
2023-03-07T08:29:41.509Z,2.40
2023-03-07T08:32:09.938Z,2.77
2023-03-07T08:34:38.372Z,2.28
2023-03-07T08:37:05.230Z,2.38
2023-03-07T08:39:31.959Z,2.85
2023-03-07T08:41:58.729Z,2.47
2023-03-07T08:44:25.662Z,2.67
2023-03-07T08:46:53.745Z,2.20
2023-03-07T08:49:20.473Z,3.17
2023-03-07T08:51:47.697Z,2.70
2023-03-07T08:54:14.669Z,2.38
2023-03-07T08:56:41.840Z,3.60
2023-03-07T08:59:08.550Z,3.05
2023-03-07T09:01:35.362Z,3.50
2023-03-07T09:04:03.493Z,3.10
2023-03-07T09:06:30.493Z,2.70
2023-03-07T09:08:57.241Z,2.22
2023-03-07T09:11:23.968Z,3.97
2023-03-07T09:13:52.810Z,2.95
2023-03-07T09:16:20.595Z,3.33
2023-03-07T09:18:48.829Z,3.58
2023-03-07T09:21:16.957Z,2.45
2023-03-07T09:23:43.744Z,3.17
2023-03-07T09:26:10.496Z,3.00
2023-03-07T09:28:37.247Z,3.95
2023-03-07T09:31:07.686Z,3.45
2023-03-07T09:33:34.612Z,2.05
2023-03-07T09:36:04.488Z,2.92
2023-03-07T09:38:33.721Z,2.95
2023-03-07T09:41:08.325Z,2.95
2023-03-07T09:43:46.006Z,2.97
2023-03-07T09:46:24.375Z,1.85
2023-03-07T09:49:04.047Z,2.53
2023-03-07T09:51:37.844Z,2.45
2023-03-07T09:54:10.060Z,2.75
2023-03-07T09:56:42.578Z,2.85
2023-03-07T09:59:22.817Z,2.22
2023-03-07T10:01:55.420Z,3.20
2023-03-07T10:04:27.645Z,2.75
2023-03-07T10:06:58.456Z,2.50
2023-03-07T10:09:26.923Z,2.75
2023-03-07T10:12:26.521Z,2.83
2023-03-07T10:15:14.418Z,2.38
2023-03-07T10:18:04.766Z,2.20
2023-03-07T10:20:46.470Z,1.70
2023-03-07T10:23:39.464Z,1.52
2023-03-07T10:26:11.647Z,2.13
2023-03-07T10:28:42.260Z,1.60
2023-03-07T10:31:17.818Z,2.30
2023-03-07T10:33:47.188Z,1.80
2023-03-07T10:36:19.340Z,2.83
2023-03-07T10:38:54.264Z,3.30
2023-03-07T10:41:25.448Z,2.75
2023-03-07T10:43:53.486Z,2.97
2023-03-07T10:46:26.956Z,2.63
2023-03-07T10:48:58.276Z,4.00
2023-03-07T10:51:36.112Z,3.88
2023-03-07T10:54:04.332Z,2.75
2023-03-07T10:56:32.504Z,4.38
2023-03-07T10:59:01.270Z,4.20
2023-03-07T11:01:28.615Z,2.83
2023-03-07T11:04:01.010Z,3.90
2023-03-07T11:06:34.555Z,3.63
2023-03-07T11:09:16.734Z,3.90
2023-03-07T11:11:51.196Z,3.28
2023-03-07T11:14:19.008Z,2.80
2023-03-07T11:16:50.591Z,2.67
2023-03-07T11:19:48.161Z,3.63
2023-03-07T11:22:27.498Z,3.47
2023-03-07T11:25:01.673Z,2.25
2023-03-07T11:27:36.475Z,2.55
2023-03-07T11:30:21.481Z,2.38
2023-03-07T11:32:53.611Z,2.25
2023-03-07T11:35:23.614Z,2.97
2023-03-07T11:38:01.997Z,3.88
2023-03-07T11:40:34.629Z,4.13
2023-03-07T11:43:11.493Z,4.80
2023-03-07T11:45:45.346Z,4.28
2023-03-07T11:48:26.268Z,2.58
2023-03-07T11:50:55.886Z,2.38
2023-03-07T11:53:35.026Z,2.13
2023-03-07T11:56:28.392Z,1.80
2023-03-07T11:59:16.258Z,2.65
2023-03-07T12:01:51.324Z,1.70
2023-03-07T12:04:57.916Z,2.95
2023-03-07T12:07:46.667Z,1.67
2023-03-07T12:10:31.088Z,2.00
2023-03-07T12:13:11.444Z,2.17
2023-03-07T12:15:44.923Z,1.75
2023-03-07T12:18:25.176Z,2.10
2023-03-07T12:21:06.527Z,3.50
2023-03-07T12:23:37.646Z,2.35
2023-03-07T12:26:10.278Z,2.50
2023-03-07T12:28:43.776Z,3.42
2023-03-07T12:31:17.223Z,1.95
2023-03-07T12:33:51.741Z,2.85
2023-03-07T12:36:24.709Z,2.80
2023-03-07T12:38:55.212Z,2.00
2023-03-07T12:41:39.776Z,1.60
2023-03-07T12:44:14.011Z,1.60
2023-03-07T12:46:47.598Z,1.27
2023-03-07T12:49:19.954Z,1.40
2023-03-07T12:51:52.829Z,1.90
2023-03-07T12:54:23.238Z,2.10
2023-03-07T12:56:55.258Z,1.48
2023-03-07T12:59:22.685Z,1.73
2023-03-07T13:01:55.622Z,1.33
2023-03-07T13:04:30.417Z,1.25
2023-03-07T13:07:05.193Z,1.38
2023-03-07T13:09:32.292Z,1.80
2023-03-07T13:12:23.976Z,1.25
2023-03-07T13:14:52.189Z,1.38
2023-03-07T13:17:52.373Z,1.40
2023-03-07T13:20:42.318Z,1.38
2023-03-07T13:23:27.541Z,1.70
2023-03-07T13:26:11.631Z,1.40
2023-03-07T13:28:41.590Z,1.25
2023-03-07T13:31:44.315Z,1.20
2023-03-07T13:34:47.242Z,0.77
2023-03-07T13:37:58.272Z,0.50
2023-03-07T13:40:51.463Z,0.70
2023-03-07T13:43:50.690Z,0.50
2023-03-07T13:46:50.981Z,0.57
2023-03-07T13:49:51.944Z,0.40
2023-03-07T13:52:42.121Z,0.55
2023-03-07T13:55:23.620Z,0.55
2023-03-07T13:57:52.875Z,0.60
2023-03-07T14:00:37.545Z,0.50
2023-03-07T14:03:21.069Z,0.90
2023-03-07T14:05:48.261Z,0.80
2023-03-07T14:08:15.631Z,1.55
2023-03-07T14:10:45.635Z,0.45
2023-03-07T14:13:55.030Z,0.80
2023-03-07T14:16:34.681Z,0.70
2023-03-07T14:19:11.458Z,0.70
2023-03-07T14:21:48.003Z,0.60
2023-03-07T14:24:31.401Z,0.90
2023-03-07T14:27:03.703Z,1.10
2023-03-07T14:29:30.503Z,0.90
2023-03-07T14:31:58.932Z,0.77
2023-03-07T14:34:29.154Z,0.88
2023-03-07T14:36:58.822Z,1.17
2023-03-07T14:39:37.503Z,0.93
2023-03-07T14:42:15.582Z,0.90
2023-03-07T14:45:11.503Z,0.80
2023-03-07T14:47:51.578Z,0.90
2023-03-07T14:50:21.480Z,0.85
2023-03-07T14:52:50.287Z,0.90
2023-03-07T14:55:19.506Z,1.15
2023-03-07T14:57:49.545Z,1.20
2023-03-07T15:00:23.847Z,0.80
2023-03-07T15:02:52.233Z,1.38
2023-03-07T15:05:20.949Z,1.27
2023-03-07T15:07:48.285Z,1.27
2023-03-07T15:10:19.870Z,0.95
2023-03-07T15:12:51.077Z,1.42
2023-03-07T15:15:31.158Z,1.98
2023-03-07T15:18:03.812Z,1.60
2023-03-07T15:20:31.485Z,1.77
2023-03-07T15:23:04.172Z,1.20
2023-03-07T15:25:31.296Z,1.65
2023-03-07T15:28:01.415Z,1.13
2023-03-07T15:30:31.018Z,1.60
2023-03-07T15:33:14.186Z,1.20
2023-03-07T15:35:42.460Z,1.92
2023-03-07T15:38:16.174Z,1.38
2023-03-07T15:40:43.207Z,1.30
2023-03-07T15:43:34.324Z,1.58
2023-03-07T15:46:04.834Z,2.38
2023-03-07T15:48:38.660Z,1.27
2023-03-07T15:51:11.670Z,2.17
2023-03-07T15:53:40.452Z,1.67
2023-03-07T15:56:21.482Z,1.30
2023-03-07T15:58:50.464Z,1.02
2023-03-07T16:06:32.824Z,1.00
2023-03-07T16:09:01.025Z,1.33
2023-03-07T16:11:28.184Z,1.60
2023-03-07T16:13:56.323Z,1.40
2023-03-07T16:16:24.550Z,1.80
2023-03-07T16:18:52.458Z,1.50
2023-03-07T16:21:20.023Z,1.40
2023-03-07T16:23:47.314Z,1.60
2023-03-07T16:26:16.914Z,1.70
2023-03-07T16:28:44.313Z,1.50
2023-03-07T16:31:14.196Z,1.90
2023-03-07T16:33:41.292Z,1.67
2023-03-07T16:36:10.029Z,3.05
2023-03-07T16:38:36.755Z,2.90
2023-03-07T16:41:03.850Z,3.60
2023-03-07T16:43:33.736Z,2.15
2023-03-07T16:46:02.346Z,2.10
2023-03-07T16:48:30.451Z,3.10
2023-03-07T16:50:57.452Z,1.63
2023-03-07T16:53:24.311Z,2.30
2023-03-07T16:55:51.523Z,2.20
2023-03-07T16:58:22.401Z,2.45
2023-03-07T17:00:49.551Z,3.05
2023-03-07T17:03:16.872Z,3.30
2023-03-07T17:05:45.144Z,4.20
2023-03-07T17:08:11.874Z,2.97
2023-03-07T17:10:39.637Z,4.15
2023-03-07T17:13:09.760Z,5.07
2023-03-07T17:15:36.596Z,3.70
2023-03-07T17:18:03.726Z,4.28
2023-03-07T17:20:30.738Z,2.85
2023-03-07T17:22:59.560Z,3.70
2023-03-07T17:25:29.882Z,2.92
2023-03-07T17:28:00.294Z,3.30
2023-03-07T17:30:28.954Z,2.40
2023-03-07T17:32:56.459Z,2.88
2023-03-07T17:35:23.846Z,2.65
2023-03-07T17:37:52.301Z,1.73
2023-03-07T17:40:20.796Z,2.13
2023-03-07T17:42:51.226Z,2.50
2023-03-07T17:45:18.528Z,2.50
2023-03-07T17:47:49.185Z,2.65
2023-03-07T17:50:15.994Z,2.10
2023-03-07T17:52:43.131Z,2.63
2023-03-07T17:55:11.116Z,2.85
2023-03-07T17:57:39.217Z,2.65
2023-03-07T18:00:07.441Z,2.43
2023-03-07T18:02:34.257Z,2.90
2023-03-07T18:05:01.518Z,2.72
2023-03-07T18:07:28.284Z,2.85
2023-03-07T18:10:07.154Z,1.80
2023-03-07T18:12:34.364Z,3.25
2023-03-07T18:15:03.896Z,3.50
2023-03-07T18:17:38.558Z,2.90
2023-03-07T18:20:13.343Z,2.90
2023-03-07T18:22:41.543Z,2.97
2023-03-07T18:25:12.114Z,3.00
2023-03-07T18:27:38.879Z,2.72
2023-03-07T18:30:08.479Z,2.13
2023-03-07T18:32:35.305Z,2.35
2023-03-07T18:35:02.160Z,2.33
2023-03-07T18:37:29.080Z,3.35
2023-03-07T18:39:55.907Z,3.67
2023-03-07T18:42:22.735Z,3.28
2023-03-07T18:44:49.474Z,3.40
2023-03-07T18:47:20.124Z,3.88
2023-03-07T18:49:48.882Z,4.18
2023-03-07T18:52:15.784Z,3.75
2023-03-07T18:54:42.940Z,3.90
2023-03-07T18:57:09.713Z,3.83
2023-03-07T18:59:36.507Z,3.88
2023-03-07T19:02:03.441Z,3.70
2023-03-07T19:04:31.822Z,4.68
2023-03-07T19:06:58.635Z,4.40
2023-03-07T19:09:25.422Z,5.30
2023-03-07T19:11:52.801Z,5.32
2023-03-07T19:14:19.574Z,6.20
2023-03-07T19:16:46.419Z,6.75
2023-03-07T19:19:13.285Z,7.80
2023-03-07T19:21:42.012Z,7.72
2023-03-07T19:24:11.536Z,7.93
2023-03-07T19:26:38.397Z,7.72
2023-03-07T19:29:05.203Z,6.70
2023-03-07T19:31:32.491Z,6.28
2023-03-07T19:34:01.758Z,5.68
2023-03-07T19:36:29.881Z,5.55
2023-03-07T19:38:58.403Z,6.15
2023-03-07T19:41:26.927Z,5.53
2023-03-07T19:43:55.508Z,7.57
2023-03-07T19:46:22.381Z,7.88
2023-03-07T19:48:49.332Z,8.07
2023-03-07T19:51:18.386Z,8.95
2023-03-07T19:56:18.015Z,7.13
2023-03-07T19:58:45.066Z,8.32
2023-03-07T20:01:14.744Z,7.35
2023-03-07T20:03:41.504Z,5.57
2023-03-07T20:06:10.749Z,4.88
2023-03-07T20:08:37.549Z,5.13
2023-03-07T20:11:09.870Z,3.60
2023-03-07T20:13:38.671Z,3.67
2023-03-07T20:16:07.187Z,2.45
2023-03-07T20:18:35.923Z,2.72
2023-03-07T20:21:03.670Z,2.15
2023-03-07T20:23:30.487Z,2.35
2023-03-07T20:26:02.852Z,2.15
2023-03-07T20:28:29.709Z,3.20
2023-03-07T20:30:57.985Z,3.38
2023-03-07T20:33:25.054Z,3.92
2023-03-07T20:36:00.222Z,3.22
2023-03-07T20:38:27.018Z,3.60
2023-03-07T20:41:02.650Z,2.90
2023-03-07T20:43:30.658Z,2.92
2023-03-07T20:46:04.029Z,2.73
2023-03-07T20:48:31.223Z,2.67
2023-03-07T20:51:04.735Z,2.47
2023-03-07T20:53:32.450Z,2.65
2023-03-07T20:56:03.289Z,2.13
2023-03-07T20:58:30.427Z,2.20
2023-03-07T21:00:59.439Z,1.90
2023-03-07T21:05:53.412Z,2.30
2023-03-07T21:08:20.211Z,2.22
2023-03-07T21:10:46.985Z,2.53
2023-03-07T21:13:13.742Z,2.78
2023-03-07T21:15:40.530Z,2.78
2023-03-07T21:18:08.833Z,2.78
2023-03-07T21:20:39.372Z,2.20
2023-03-07T21:23:06.108Z,2.47
2023-03-07T21:25:32.859Z,2.10
2023-03-07T21:27:59.682Z,2.63
2023-03-07T21:30:26.456Z,3.13
2023-03-07T21:32:55.453Z,4.07
2023-03-07T21:37:50.705Z,3.10
2023-03-07T21:40:17.676Z,3.05
2023-03-07T21:42:44.460Z,2.28
2023-03-07T21:45:11.652Z,3.35
2023-03-07T21:47:38.469Z,2.17
2023-03-07T21:50:05.703Z,3.80
2023-03-07T21:52:33.846Z,3.10
2023-03-07T21:55:00.700Z,2.85
2023-03-07T21:57:28.619Z,2.58
2023-03-07T21:59:55.337Z,2.15
2023-03-07T22:02:22.191Z,1.90
2023-03-07T22:04:49.281Z,1.77
2023-03-07T22:07:16.026Z,2.30
2023-03-07T22:09:44.169Z,1.80
2023-03-07T22:12:10.933Z,2.28
2023-03-07T22:14:37.800Z,2.35
2023-03-07T22:17:04.556Z,1.63
2023-03-07T22:19:31.472Z,1.60
2023-03-07T22:21:58.216Z,1.88
2023-03-07T22:24:24.913Z,2.80
2023-03-07T22:26:52.971Z,2.50
2023-03-07T22:29:19.699Z,2.97
2023-03-07T22:31:46.470Z,2.67
2023-03-07T22:34:14.224Z,3.45
2023-03-07T22:36:41.971Z,3.13
2023-03-07T22:39:10.084Z,2.65
2023-03-07T22:41:36.860Z,2.60
2023-03-07T22:44:05.042Z,3.28
2023-03-07T22:46:31.769Z,4.55
2023-03-07T22:48:58.589Z,4.28
2023-03-07T22:51:26.440Z,4.47
2023-03-07T22:53:53.830Z,4.72
2023-03-07T22:56:22.319Z,4.70
2023-03-07T22:58:49.386Z,7.00
2023-03-07T23:01:19.099Z,8.10
2023-03-07T23:03:46.336Z,7.90
2023-03-07T23:06:13.298Z,7.70
2023-03-07T23:08:40.246Z,9.02
2023-03-07T23:11:08.827Z,11.10
2023-03-07T23:13:35.718Z,9.68
2023-03-07T23:16:04.555Z,8.50
2023-03-07T23:18:32.695Z,12.63
2023-03-07T23:21:01.839Z,10.13
2023-03-07T23:23:30.685Z,12.25
2023-03-07T23:25:59.339Z,12.60
2023-03-07T23:28:26.188Z,11.27
2023-03-07T23:30:53.062Z,10.98
2023-03-07T23:33:19.867Z,7.32
2023-03-07T23:35:48.061Z,7.32
2023-03-07T23:38:15.498Z,10.32
2023-03-07T23:40:42.903Z,9.43
2023-03-07T23:43:12.707Z,10.48
2023-03-07T23:45:40.658Z,7.22
2023-03-07T23:48:07.635Z,9.02
2023-03-07T23:50:34.371Z,10.38
2023-03-07T23:53:02.702Z,12.00
2023-03-07T23:55:29.461Z,12.27
2023-03-07T23:57:56.227Z,11.30
